sensor_id;sensor_type;location;lat;lon;timestamp;temperature;humidity
2022;DHT22;1015;49.756;6.994;2022-10-24T00:01:08;13.60;99.90
2022;DHT22;1015;49.756;6.994;2022-10-24T00:03:35;13.60;99.90
2022;DHT22;1015;49.756;6.994;2022-10-24T00:06:04;13.60;99.90
2022;DHT22;1015;49.756;6.994;2022-10-24T00:08:31;13.60;99.90
2022;DHT22;1015;49.756;6.994;2022-10-24T00:11:00;13.60;99.90
2022;DHT22;1015;49.756;6.994;2022-10-24T00:13:28;13.60;99.90
2022;DHT22;1015;49.756;6.994;2022-10-24T00:15:55;13.60;99.90
2022;DHT22;1015;49.756;6.994;2022-10-24T00:18:22;13.50;99.90
2022;DHT22;1015;49.756;6.994;2022-10-24T00:20:49;13.50;99.90
2022;DHT22;1015;49.756;6.994;2022-10-24T00:23:17;13.30;99.90
2022;DHT22;1015;49.756;6.994;2022-10-24T00:25:44;13.40;99.90
2022;DHT22;1015;49.756;6.994;2022-10-24T00:28:12;13.40;99.90
2022;DHT22;1015;49.756;6.994;2022-10-24T00:30:40;13.40;99.90
2022;DHT22;1015;49.756;6.994;2022-10-24T00:33:07;13.40;99.90
2022;DHT22;1015;49.756;6.994;2022-10-24T00:35:34;13.40;99.90
2022;DHT22;1015;49.756;6.994;2022-10-24T00:38:01;13.50;99.90
2022;DHT22;1015;49.756;6.994;2022-10-24T00:40:28;13.40;99.90
2022;DHT22;1015;49.756;6.994;2022-10-24T00:42:56;13.50;99.90
2022;DHT22;1015;49.756;6.994;2022-10-24T00:45:44;13.40;99.90
2022;DHT22;1015;49.756;6.994;2022-10-24T00:48:19;13.50;99.90
2022;DHT22;1015;49.756;6.994;2022-10-24T00:50:50;13.40;99.90
2022;DHT22;1015;49.756;6.994;2022-10-24T00:53:19;13.30;99.90
2022;DHT22;1015;49.756;6.994;2022-10-24T00:55:49;13.40;99.90
2022;DHT22;1015;49.756;6.994;2022-10-24T00:58:20;13.40;99.90
2022;DHT22;1015;49.756;6.994;2022-10-24T01:00:50;13.40;99.90
2022;DHT22;1015;49.756;6.994;2022-10-24T01:03:18;13.30;99.90
2022;DHT22;1015;49.756;6.994;2022-10-24T01:06:05;13.30;99.90
2022;DHT22;1015;49.756;6.994;2022-10-24T01:08:42;13.40;99.90
2022;DHT22;1015;49.756;6.994;2022-10-24T01:11:17;13.40;99.90
2022;DHT22;1015;49.756;6.994;2022-10-24T01:14:09;13.40;99.90
2022;DHT22;1015;49.756;6.994;2022-10-24T01:16:45;13.30;99.90
2022;DHT22;1015;49.756;6.994;2022-10-24T01:19:39;13.20;99.90
2022;DHT22;1015;49.756;6.994;2022-10-24T01:22:11;13.20;99.90
2022;DHT22;1015;49.756;6.994;2022-10-24T01:24:55;13.20;99.90
2022;DHT22;1015;49.756;6.994;2022-10-24T01:27:47;13.30;99.90
2022;DHT22;1015;49.756;6.994;2022-10-24T01:30:21;13.30;99.90
2022;DHT22;1015;49.756;6.994;2022-10-24T01:32:55;13.20;99.90
2022;DHT22;1015;49.756;6.994;2022-10-24T01:35:30;13.20;99.90
2022;DHT22;1015;49.756;6.994;2022-10-24T01:38:05;13.30;99.90
2022;DHT22;1015;49.756;6.994;2022-10-24T01:40:41;13.30;99.90
2022;DHT22;1015;49.756;6.994;2022-10-24T01:43:12;13.30;99.90
2022;DHT22;1015;49.756;6.994;2022-10-24T01:45:46;13.40;99.90
2022;DHT22;1015;49.756;6.994;2022-10-24T01:48:19;13.40;99.90
2022;DHT22;1015;49.756;6.994;2022-10-24T01:50:48;13.30;99.90
2022;DHT22;1015;49.756;6.994;2022-10-24T01:53:19;13.20;99.90
2022;DHT22;1015;49.756;6.994;2022-10-24T01:55:47;13.20;99.90
2022;DHT22;1015;49.756;6.994;2022-10-24T01:58:16;13.10;99.90
2022;DHT22;1015;49.756;6.994;2022-10-24T02:00:46;13.10;99.90
2022;DHT22;1015;49.756;6.994;2022-10-24T02:03:20;13.10;99.90
2022;DHT22;1015;49.756;6.994;2022-10-24T02:05:51;13.00;99.90
2022;DHT22;1015;49.756;6.994;2022-10-24T02:08:25;13.00;99.90
2022;DHT22;1015;49.756;6.994;2022-10-24T02:10:56;13.00;99.90
2022;DHT22;1015;49.756;6.994;2022-10-24T02:13:28;13.00;99.90
2022;DHT22;1015;49.756;6.994;2022-10-24T02:15:59;13.00;99.90
2022;DHT22;1015;49.756;6.994;2022-10-24T02:18:29;12.90;99.90
2022;DHT22;1015;49.756;6.994;2022-10-24T02:21:03;13.00;99.90
2022;DHT22;1015;49.756;6.994;2022-10-24T02:23:35;13.10;99.90
2022;DHT22;1015;49.756;6.994;2022-10-24T02:26:05;13.10;99.90
2022;DHT22;1015;49.756;6.994;2022-10-24T02:28:39;13.10;99.90
2022;DHT22;1015;49.756;6.994;2022-10-24T02:31:12;13.10;99.90
2022;DHT22;1015;49.756;6.994;2022-10-24T02:33:43;13.00;99.90
2022;DHT22;1015;49.756;6.994;2022-10-24T02:36:13;13.00;99.90
2022;DHT22;1015;49.756;6.994;2022-10-24T02:38:43;13.00;99.90
2022;DHT22;1015;49.756;6.994;2022-10-24T02:41:13;13.00;99.90
2022;DHT22;1015;49.756;6.994;2022-10-24T02:43:42;13.00;99.90
2022;DHT22;1015;49.756;6.994;2022-10-24T02:46:13;13.00;99.90
2022;DHT22;1015;49.756;6.994;2022-10-24T02:48:44;13.00;99.90
2022;DHT22;1015;49.756;6.994;2022-10-24T02:51:15;13.00;99.90
2022;DHT22;1015;49.756;6.994;2022-10-24T02:53:43;13.00;99.90
2022;DHT22;1015;49.756;6.994;2022-10-24T02:56:11;13.10;99.90
2022;DHT22;1015;49.756;6.994;2022-10-24T02:58:38;13.10;99.90
2022;DHT22;1015;49.756;6.994;2022-10-24T03:01:05;13.10;99.90
2022;DHT22;1015;49.756;6.994;2022-10-24T03:03:34;13.20;99.90
2022;DHT22;1015;49.756;6.994;2022-10-24T03:06:01;13.20;99.90
2022;DHT22;1015;49.756;6.994;2022-10-24T03:08:29;13.30;99.90
2022;DHT22;1015;49.756;6.994;2022-10-24T03:10:56;13.20;99.90
2022;DHT22;1015;49.756;6.994;2022-10-24T03:13:23;13.20;99.90
2022;DHT22;1015;49.756;6.994;2022-10-24T03:15:50;13.10;99.90
2022;DHT22;1015;49.756;6.994;2022-10-24T03:18:18;13.20;99.90
2022;DHT22;1015;49.756;6.994;2022-10-24T03:20:46;13.20;99.90
2022;DHT22;1015;49.756;6.994;2022-10-24T03:23:14;13.30;99.90
2022;DHT22;1015;49.756;6.994;2022-10-24T03:25:44;13.20;99.90
2022;DHT22;1015;49.756;6.994;2022-10-24T03:28:11;13.20;99.90
2022;DHT22;1015;49.756;6.994;2022-10-24T03:30:38;13.20;99.90
2022;DHT22;1015;49.756;6.994;2022-10-24T03:33:06;13.10;99.90
2022;DHT22;1015;49.756;6.994;2022-10-24T03:35:34;13.10;99.90
2022;DHT22;1015;49.756;6.994;2022-10-24T03:38:03;13.10;99.90
2022;DHT22;1015;49.756;6.994;2022-10-24T03:40:33;13.10;99.90
2022;DHT22;1015;49.756;6.994;2022-10-24T03:43:00;13.10;99.90
2022;DHT22;1015;49.756;6.994;2022-10-24T03:45:27;13.10;99.90
2022;DHT22;1015;49.756;6.994;2022-10-24T03:47:54;13.10;99.90
2022;DHT22;1015;49.756;6.994;2022-10-24T03:50:22;13.00;99.90
2022;DHT22;1015;49.756;6.994;2022-10-24T03:52:49;13.10;99.90
2022;DHT22;1015;49.756;6.994;2022-10-24T03:55:18;13.10;99.90
2022;DHT22;1015;49.756;6.994;2022-10-24T03:57:45;13.10;99.90
2022;DHT22;1015;49.756;6.994;2022-10-24T04:00:13;13.20;99.90
2022;DHT22;1015;49.756;6.994;2022-10-24T04:02:40;13.20;99.90
2022;DHT22;1015;49.756;6.994;2022-10-24T04:05:08;13.20;99.90
2022;DHT22;1015;49.756;6.994;2022-10-24T04:07:35;13.20;99.90
2022;DHT22;1015;49.756;6.994;2022-10-24T04:10:02;13.20;99.90
2022;DHT22;1015;49.756;6.994;2022-10-24T04:12:31;13.20;99.90
2022;DHT22;1015;49.756;6.994;2022-10-24T04:14:58;13.20;99.90
2022;DHT22;1015;49.756;6.994;2022-10-24T04:17:26;13.20;99.90
2022;DHT22;1015;49.756;6.994;2022-10-24T04:19:53;13.20;99.90
2022;DHT22;1015;49.756;6.994;2022-10-24T04:22:20;13.10;99.90
2022;DHT22;1015;49.756;6.994;2022-10-24T04:24:48;13.10;99.90
2022;DHT22;1015;49.756;6.994;2022-10-24T04:27:15;13.10;99.90
2022;DHT22;1015;49.756;6.994;2022-10-24T04:29:43;13.20;99.90
2022;DHT22;1015;49.756;6.994;2022-10-24T04:32:10;13.10;99.90
2022;DHT22;1015;49.756;6.994;2022-10-24T04:34:38;13.10;99.90
2022;DHT22;1015;49.756;6.994;2022-10-24T04:37:05;13.10;99.90
2022;DHT22;1015;49.756;6.994;2022-10-24T04:39:32;13.10;99.90
2022;DHT22;1015;49.756;6.994;2022-10-24T04:41:59;13.00;99.90
2022;DHT22;1015;49.756;6.994;2022-10-24T04:44:26;13.00;99.90
2022;DHT22;1015;49.756;6.994;2022-10-24T04:46:55;13.00;99.90
2022;DHT22;1015;49.756;6.994;2022-10-24T04:49:22;12.90;99.90
2022;DHT22;1015;49.756;6.994;2022-10-24T04:51:50;13.00;99.90
2022;DHT22;1015;49.756;6.994;2022-10-24T04:54:17;13.00;99.90
2022;DHT22;1015;49.756;6.994;2022-10-24T04:56:44;12.80;99.90
2022;DHT22;1015;49.756;6.994;2022-10-24T04:59:11;12.80;99.90
2022;DHT22;1015;49.756;6.994;2022-10-24T05:01:38;12.80;99.90
2022;DHT22;1015;49.756;6.994;2022-10-24T05:04:07;12.80;99.90
2022;DHT22;1015;49.756;6.994;2022-10-24T05:06:34;12.80;99.90
2022;DHT22;1015;49.756;6.994;2022-10-24T05:09:01;12.70;99.90
2022;DHT22;1015;49.756;6.994;2022-10-24T05:11:29;12.80;99.90
2022;DHT22;1015;49.756;6.994;2022-10-24T05:13:56;12.70;99.90
2022;DHT22;1015;49.756;6.994;2022-10-24T05:16:24;12.80;99.90
2022;DHT22;1015;49.756;6.994;2022-10-24T05:18:51;12.80;99.90
2022;DHT22;1015;49.756;6.994;2022-10-24T05:21:20;12.80;99.90
2022;DHT22;1015;49.756;6.994;2022-10-24T05:23:47;12.80;99.90
2022;DHT22;1015;49.756;6.994;2022-10-24T05:26:14;12.70;99.90
2022;DHT22;1015;49.756;6.994;2022-10-24T05:28:42;12.70;99.90
2022;DHT22;1015;49.756;6.994;2022-10-24T05:31:09;12.70;99.90
2022;DHT22;1015;49.756;6.994;2022-10-24T05:33:36;12.70;99.90
2022;DHT22;1015;49.756;6.994;2022-10-24T05:36:04;12.70;99.90
2022;DHT22;1015;49.756;6.994;2022-10-24T05:38:33;12.70;99.90
2022;DHT22;1015;49.756;6.994;2022-10-24T05:41:00;12.60;99.90
2022;DHT22;1015;49.756;6.994;2022-10-24T05:43:27;12.70;99.90
2022;DHT22;1015;49.756;6.994;2022-10-24T05:45:54;12.70;99.90
2022;DHT22;1015;49.756;6.994;2022-10-24T05:48:22;12.70;99.90
2022;DHT22;1015;49.756;6.994;2022-10-24T05:50:49;12.70;99.90
2022;DHT22;1015;49.756;6.994;2022-10-24T05:53:16;12.60;99.90
2022;DHT22;1015;49.756;6.994;2022-10-24T05:55:44;12.60;99.90
2022;DHT22;1015;49.756;6.994;2022-10-24T05:58:12;12.50;99.90
2022;DHT22;1015;49.756;6.994;2022-10-24T06:00:39;12.50;99.90
2022;DHT22;1015;49.756;6.994;2022-10-24T06:03:06;12.50;99.90
2022;DHT22;1015;49.756;6.994;2022-10-24T06:05:33;12.50;99.90
2022;DHT22;1015;49.756;6.994;2022-10-24T06:08:00;12.50;99.90
2022;DHT22;1015;49.756;6.994;2022-10-24T06:10:27;12.50;99.90
2022;DHT22;1015;49.756;6.994;2022-10-24T06:12:56;12.40;99.90
2022;DHT22;1015;49.756;6.994;2022-10-24T06:15:23;12.40;99.90
2022;DHT22;1015;49.756;6.994;2022-10-24T06:17:50;12.50;99.90
2022;DHT22;1015;49.756;6.994;2022-10-24T06:20:18;12.50;99.90
2022;DHT22;1015;49.756;6.994;2022-10-24T06:22:46;12.50;99.90
2022;DHT22;1015;49.756;6.994;2022-10-24T06:25:14;12.50;99.90
2022;DHT22;1015;49.756;6.994;2022-10-24T06:27:42;12.40;99.90
2022;DHT22;1015;49.756;6.994;2022-10-24T06:30:11;12.50;99.90
2022;DHT22;1015;49.756;6.994;2022-10-24T06:32:38;12.50;99.90
2022;DHT22;1015;49.756;6.994;2022-10-24T06:35:06;12.50;99.90
2022;DHT22;1015;49.756;6.994;2022-10-24T06:37:34;12.50;99.90
2022;DHT22;1015;49.756;6.994;2022-10-24T06:40:01;12.50;99.90
2022;DHT22;1015;49.756;6.994;2022-10-24T06:42:29;12.60;99.90
2022;DHT22;1015;49.756;6.994;2022-10-24T06:44:56;12.60;99.90
2022;DHT22;1015;49.756;6.994;2022-10-24T06:47:25;12.60;99.90
2022;DHT22;1015;49.756;6.994;2022-10-24T06:49:52;12.60;99.90
2022;DHT22;1015;49.756;6.994;2022-10-24T06:52:19;12.70;99.90
2022;DHT22;1015;49.756;6.994;2022-10-24T06:54:46;12.70;99.90
2022;DHT22;1015;49.756;6.994;2022-10-24T06:57:14;12.70;99.90
2022;DHT22;1015;49.756;6.994;2022-10-24T06:59:42;12.70;99.90
2022;DHT22;1015;49.756;6.994;2022-10-24T07:02:12;12.60;99.90
2022;DHT22;1015;49.756;6.994;2022-10-24T07:04:41;12.70;99.90
2022;DHT22;1015;49.756;6.994;2022-10-24T07:07:13;12.80;99.90
2022;DHT22;1015;49.756;6.994;2022-10-24T07:09:41;12.90;99.90
2022;DHT22;1015;49.756;6.994;2022-10-24T07:12:08;12.90;99.90
2022;DHT22;1015;49.756;6.994;2022-10-24T07:14:35;13.00;99.90
2022;DHT22;1015;49.756;6.994;2022-10-24T07:17:03;13.10;99.90
2022;DHT22;1015;49.756;6.994;2022-10-24T07:19:30;13.10;99.90
2022;DHT22;1015;49.756;6.994;2022-10-24T07:21:59;13.20;99.90
2022;DHT22;1015;49.756;6.994;2022-10-24T07:24:26;13.20;99.90
2022;DHT22;1015;49.756;6.994;2022-10-24T07:26:53;13.20;99.90
2022;DHT22;1015;49.756;6.994;2022-10-24T07:29:21;13.20;99.90
2022;DHT22;1015;49.756;6.994;2022-10-24T07:31:48;13.20;99.90
2022;DHT22;1015;49.756;6.994;2022-10-24T07:34:15;13.20;99.90
2022;DHT22;1015;49.756;6.994;2022-10-24T07:36:42;13.20;99.90
2022;DHT22;1015;49.756;6.994;2022-10-24T07:39:12;13.20;99.90
2022;DHT22;1015;49.756;6.994;2022-10-24T07:41:40;13.20;99.90
2022;DHT22;1015;49.756;6.994;2022-10-24T07:44:08;13.30;99.90
2022;DHT22;1015;49.756;6.994;2022-10-24T07:46:36;13.40;99.90
2022;DHT22;1015;49.756;6.994;2022-10-24T07:49:03;13.50;99.90
2022;DHT22;1015;49.756;6.994;2022-10-24T07:51:31;13.60;99.90
2022;DHT22;1015;49.756;6.994;2022-10-24T07:53:59;13.60;99.90
2022;DHT22;1015;49.756;6.994;2022-10-24T07:56:28;13.60;99.90
2022;DHT22;1015;49.756;6.994;2022-10-24T07:58:55;13.70;99.90
2022;DHT22;1015;49.756;6.994;2022-10-24T08:01:27;13.80;99.90
2022;DHT22;1015;49.756;6.994;2022-10-24T08:03:55;13.90;99.90
2022;DHT22;1015;49.756;6.994;2022-10-24T08:06:25;13.90;99.90
2022;DHT22;1015;49.756;6.994;2022-10-24T08:08:54;14.00;99.90
2022;DHT22;1015;49.756;6.994;2022-10-24T08:11:23;14.00;99.90
2022;DHT22;1015;49.756;6.994;2022-10-24T08:13:53;14.00;99.90
2022;DHT22;1015;49.756;6.994;2022-10-24T08:16:22;14.00;99.90
2022;DHT22;1015;49.756;6.994;2022-10-24T08:18:51;14.10;99.90
2022;DHT22;1015;49.756;6.994;2022-10-24T08:21:20;14.30;99.90
2022;DHT22;1015;49.756;6.994;2022-10-24T08:23:49;14.50;99.90
2022;DHT22;1015;49.756;6.994;2022-10-24T08:26:18;14.70;99.90
2022;DHT22;1015;49.756;6.994;2022-10-24T08:28:46;14.80;99.90
2022;DHT22;1015;49.756;6.994;2022-10-24T08:31:17;15.00;99.90
2022;DHT22;1015;49.756;6.994;2022-10-24T08:33:45;15.00;99.90
2022;DHT22;1015;49.756;6.994;2022-10-24T08:36:15;15.00;99.90
2022;DHT22;1015;49.756;6.994;2022-10-24T08:38:43;15.00;99.90
2022;DHT22;1015;49.756;6.994;2022-10-24T08:41:16;15.00;99.90
2022;DHT22;1015;49.756;6.994;2022-10-24T08:43:46;15.00;99.90
2022;DHT22;1015;49.756;6.994;2022-10-24T08:46:27;15.00;99.90
2022;DHT22;1015;49.756;6.994;2022-10-24T08:49:02;15.00;99.90
2022;DHT22;1015;49.756;6.994;2022-10-24T08:51:36;15.10;99.90
2022;DHT22;1015;49.756;6.994;2022-10-24T08:54:07;15.20;99.90
2022;DHT22;1015;49.756;6.994;2022-10-24T08:56:37;15.40;99.90
2022;DHT22;1015;49.756;6.994;2022-10-24T08:59:05;15.60;99.90
2022;DHT22;1015;49.756;6.994;2022-10-24T09:01:40;15.50;99.90
2022;DHT22;1015;49.756;6.994;2022-10-24T09:04:11;15.50;99.90
2022;DHT22;1015;49.756;6.994;2022-10-24T09:06:39;15.50;99.90
2022;DHT22;1015;49.756;6.994;2022-10-24T09:09:18;15.60;99.90
2022;DHT22;1015;49.756;6.994;2022-10-24T09:11:50;15.60;99.90
2022;DHT22;1015;49.756;6.994;2022-10-24T09:14:20;15.70;99.90
2022;DHT22;1015;49.756;6.994;2022-10-24T09:16:52;15.80;99.90
2022;DHT22;1015;49.756;6.994;2022-10-24T09:19:22;15.80;99.90
2022;DHT22;1015;49.756;6.994;2022-10-24T09:21:51;15.80;99.90
2022;DHT22;1015;49.756;6.994;2022-10-24T09:24:31;15.90;99.90
2022;DHT22;1015;49.756;6.994;2022-10-24T09:26:59;16.00;99.90
2022;DHT22;1015;49.756;6.994;2022-10-24T09:29:30;16.10;99.90
2022;DHT22;1015;49.756;6.994;2022-10-24T09:32:00;16.00;99.90
2022;DHT22;1015;49.756;6.994;2022-10-24T09:34:27;15.90;99.90
2022;DHT22;1015;49.756;6.994;2022-10-24T09:36:55;15.80;99.90
2022;DHT22;1015;49.756;6.994;2022-10-24T09:39:28;15.90;99.90
2022;DHT22;1015;49.756;6.994;2022-10-24T09:41:56;15.90;99.90
2022;DHT22;1015;49.756;6.994;2022-10-24T09:44:36;15.80;99.90
2022;DHT22;1015;49.756;6.994;2022-10-24T09:47:20;16.20;99.90
2022;DHT22;1015;49.756;6.994;2022-10-24T09:49:49;16.50;99.90
2022;DHT22;1015;49.756;6.994;2022-10-24T09:52:19;16.40;99.90
2022;DHT22;1015;49.756;6.994;2022-10-24T09:55:05;16.30;99.90
2022;DHT22;1015;49.756;6.994;2022-10-24T09:57:37;16.10;99.90
2022;DHT22;1015;49.756;6.994;2022-10-24T10:00:06;15.70;99.90
2022;DHT22;1015;49.756;6.994;2022-10-24T10:02:56;15.90;99.90
2022;DHT22;1015;49.756;6.994;2022-10-24T10:05:24;15.70;99.90
2022;DHT22;1015;49.756;6.994;2022-10-24T10:07:51;15.60;99.90
2022;DHT22;1015;49.756;6.994;2022-10-24T10:10:30;15.80;99.90
2022;DHT22;1015;49.756;6.994;2022-10-24T10:13:02;15.60;99.90
2022;DHT22;1015;49.756;6.994;2022-10-24T10:15:32;15.90;99.90
2022;DHT22;1015;49.756;6.994;2022-10-24T10:18:04;16.30;99.90
2022;DHT22;1015;49.756;6.994;2022-10-24T10:20:37;16.30;99.90
2022;DHT22;1015;49.756;6.994;2022-10-24T10:23:23;16.00;99.90
2022;DHT22;1015;49.756;6.994;2022-10-24T10:26:10;16.00;99.90
2022;DHT22;1015;49.756;6.994;2022-10-24T10:28:42;15.80;99.90
2022;DHT22;1015;49.756;6.994;2022-10-24T10:31:11;15.90;99.90
2022;DHT22;1015;49.756;6.994;2022-10-24T10:33:46;16.00;99.90
2022;DHT22;1015;49.756;6.994;2022-10-24T10:36:21;16.00;99.90
2022;DHT22;1015;49.756;6.994;2022-10-24T10:38:51;15.80;99.90
2022;DHT22;1015;49.756;6.994;2022-10-24T10:41:36;15.80;99.90
2022;DHT22;1015;49.756;6.994;2022-10-24T10:44:20;15.80;99.90
2022;DHT22;1015;49.756;6.994;2022-10-24T10:46:56;15.60;99.90
2022;DHT22;1015;49.756;6.994;2022-10-24T10:49:30;15.40;99.90
2022;DHT22;1015;49.756;6.994;2022-10-24T10:52:04;15.20;99.90
2022;DHT22;1015;49.756;6.994;2022-10-24T10:55:00;15.30;99.90
2022;DHT22;1015;49.756;6.994;2022-10-24T10:57:38;15.40;99.90
2022;DHT22;1015;49.756;6.994;2022-10-24T11:00:10;15.30;99.90
2022;DHT22;1015;49.756;6.994;2022-10-24T11:02:57;15.50;99.90
2022;DHT22;1015;49.756;6.994;2022-10-24T11:05:35;15.80;99.90
2022;DHT22;1015;49.756;6.994;2022-10-24T11:08:13;15.80;99.90
2022;DHT22;1015;49.756;6.994;2022-10-24T11:10:47;15.90;99.90
2022;DHT22;1015;49.756;6.994;2022-10-24T11:13:20;15.90;99.90
2022;DHT22;1015;49.756;6.994;2022-10-24T11:15:52;15.90;99.90
2022;DHT22;1015;49.756;6.994;2022-10-24T11:18:24;15.90;99.90
2022;DHT22;1015;49.756;6.994;2022-10-24T11:20:56;15.90;99.90
2022;DHT22;1015;49.756;6.994;2022-10-24T11:23:30;15.90;99.90
2022;DHT22;1015;49.756;6.994;2022-10-24T11:26:01;15.90;99.90
2022;DHT22;1015;49.756;6.994;2022-10-24T11:28:31;15.90;99.90
2022;DHT22;1015;49.756;6.994;2022-10-24T11:31:07;16.10;99.90
2022;DHT22;1015;49.756;6.994;2022-10-24T11:33:42;16.10;99.90
2022;DHT22;1015;49.756;6.994;2022-10-24T11:36:16;16.40;99.90
2022;DHT22;1015;49.756;6.994;2022-10-24T11:38:49;16.20;99.90
2022;DHT22;1015;49.756;6.994;2022-10-24T11:41:40;16.30;99.90
2022;DHT22;1015;49.756;6.994;2022-10-24T11:44:21;16.00;99.90
2022;DHT22;1015;49.756;6.994;2022-10-24T11:46:53;15.90;99.90
2022;DHT22;1015;49.756;6.994;2022-10-24T11:49:27;15.50;99.90
2022;DHT22;1015;49.756;6.994;2022-10-24T11:52:03;15.50;99.90
2022;DHT22;1015;49.756;6.994;2022-10-24T11:54:37;15.60;99.90
2022;DHT22;1015;49.756;6.994;2022-10-24T11:57:11;15.50;99.90
2022;DHT22;1015;49.756;6.994;2022-10-24T11:59:39;15.60;99.90
2022;DHT22;1015;49.756;6.994;2022-10-24T12:02:27;15.80;99.90
2022;DHT22;1015;49.756;6.994;2022-10-24T12:05:24;15.90;99.90
2022;DHT22;1015;49.756;6.994;2022-10-24T12:08:26;15.90;99.90
2022;DHT22;1015;49.756;6.994;2022-10-24T12:11:08;15.60;99.90
2022;DHT22;1015;49.756;6.994;2022-10-24T12:13:58;16.00;99.90
2022;DHT22;1015;49.756;6.994;2022-10-24T12:16:38;16.00;99.90
2022;DHT22;1015;49.756;6.994;2022-10-24T12:19:14;15.60;99.90
2022;DHT22;1015;49.756;6.994;2022-10-24T12:21:46;15.50;99.90
2022;DHT22;1015;49.756;6.994;2022-10-24T12:24:25;15.50;99.90
2022;DHT22;1015;49.756;6.994;2022-10-24T12:26:57;15.60;99.90
2022;DHT22;1015;49.756;6.994;2022-10-24T12:29:25;15.60;99.90
2022;DHT22;1015;49.756;6.994;2022-10-24T12:31:53;15.40;99.90
2022;DHT22;1015;49.756;6.994;2022-10-24T12:34:40;15.40;99.90
2022;DHT22;1015;49.756;6.994;2022-10-24T12:37:30;15.40;99.90
2022;DHT22;1015;49.756;6.994;2022-10-24T12:43:13;15.60;99.90
2022;DHT22;1015;49.756;6.994;2022-10-24T12:45:41;15.60;99.90
2022;DHT22;1015;49.756;6.994;2022-10-24T12:48:30;15.60;99.90
2022;DHT22;1015;49.756;6.994;2022-10-24T12:51:01;16.10;99.90
2022;DHT22;1015;49.756;6.994;2022-10-24T12:56:21;16.90;99.90
2022;DHT22;1015;49.756;6.994;2022-10-24T12:58:59;16.80;99.90
2022;DHT22;1015;49.756;6.994;2022-10-24T13:01:30;16.80;99.90
2022;DHT22;1015;49.756;6.994;2022-10-24T13:07:20;16.60;99.90
2022;DHT22;1015;49.756;6.994;2022-10-24T13:13:11;16.90;99.90
2022;DHT22;1015;49.756;6.994;2022-10-24T13:15:48;16.60;99.90
2022;DHT22;1015;49.756;6.994;2022-10-24T13:18:30;16.50;99.90
2022;DHT22;1015;49.756;6.994;2022-10-24T13:21:23;16.10;99.90
2022;DHT22;1015;49.756;6.994;2022-10-24T13:23:53;16.10;99.90
2022;DHT22;1015;49.756;6.994;2022-10-24T13:26:38;16.40;99.90
2022;DHT22;1015;49.756;6.994;2022-10-24T13:29:14;16.60;99.90
2022;DHT22;1015;49.756;6.994;2022-10-24T13:31:44;16.80;99.90
2022;DHT22;1015;49.756;6.994;2022-10-24T13:34:30;16.80;99.90
2022;DHT22;1015;49.756;6.994;2022-10-24T13:37:04;16.80;99.90
2022;DHT22;1015;49.756;6.994;2022-10-24T13:39:36;16.50;99.90
2022;DHT22;1015;49.756;6.994;2022-10-24T13:42:06;16.40;99.90
2022;DHT22;1015;49.756;6.994;2022-10-24T13:44:42;16.30;99.90
2022;DHT22;1015;49.756;6.994;2022-10-24T13:47:16;16.10;99.90
2022;DHT22;1015;49.756;6.994;2022-10-24T13:49:50;15.90;99.90
2022;DHT22;1015;49.756;6.994;2022-10-24T13:52:22;15.90;99.90
2022;DHT22;1015;49.756;6.994;2022-10-24T13:54:55;15.90;99.90
2022;DHT22;1015;49.756;6.994;2022-10-24T13:57:29;16.00;99.90
2022;DHT22;1015;49.756;6.994;2022-10-24T14:00:01;16.00;99.90
2022;DHT22;1015;49.756;6.994;2022-10-24T14:02:32;15.80;99.90
2022;DHT22;1015;49.756;6.994;2022-10-24T14:05:00;15.80;99.90
2022;DHT22;1015;49.756;6.994;2022-10-24T14:07:30;15.90;99.90
2022;DHT22;1015;49.756;6.994;2022-10-24T14:10:02;16.00;99.90
2022;DHT22;1015;49.756;6.994;2022-10-24T14:12:31;15.90;99.90
2022;DHT22;1015;49.756;6.994;2022-10-24T14:15:00;15.70;99.90
2022;DHT22;1015;49.756;6.994;2022-10-24T14:17:29;15.90;99.90
2022;DHT22;1015;49.756;6.994;2022-10-24T14:20:00;15.90;99.90
2022;DHT22;1015;49.756;6.994;2022-10-24T14:22:34;15.90;99.90
2022;DHT22;1015;49.756;6.994;2022-10-24T14:25:05;15.80;99.90
2022;DHT22;1015;49.756;6.994;2022-10-24T14:27:32;15.60;99.90
2022;DHT22;1015;49.756;6.994;2022-10-24T14:30:03;15.50;99.90
2022;DHT22;1015;49.756;6.994;2022-10-24T14:32:30;15.40;99.90
2022;DHT22;1015;49.756;6.994;2022-10-24T14:34:58;15.40;99.90
2022;DHT22;1015;49.756;6.994;2022-10-24T14:37:31;15.50;99.90
2022;DHT22;1015;49.756;6.994;2022-10-24T14:39:59;15.40;99.90
2022;DHT22;1015;49.756;6.994;2022-10-24T14:42:27;15.40;99.90
2022;DHT22;1015;49.756;6.994;2022-10-24T14:44:55;15.40;99.90
2022;DHT22;1015;49.756;6.994;2022-10-24T14:47:29;15.40;99.90
2022;DHT22;1015;49.756;6.994;2022-10-24T14:49:57;15.30;99.90
2022;DHT22;1015;49.756;6.994;2022-10-24T14:52:27;15.20;99.90
2022;DHT22;1015;49.756;6.994;2022-10-24T14:54:59;15.20;99.90
2022;DHT22;1015;49.756;6.994;2022-10-24T14:57:29;15.20;99.90
2022;DHT22;1015;49.756;6.994;2022-10-24T14:59:59;15.20;99.90
2022;DHT22;1015;49.756;6.994;2022-10-24T15:02:35;15.20;99.90
2022;DHT22;1015;49.756;6.994;2022-10-24T15:07:59;15.30;99.90
2022;DHT22;1015;49.756;6.994;2022-10-24T15:10:35;15.30;99.90
2022;DHT22;1015;49.756;6.994;2022-10-24T15:13:08;15.30;99.90
2022;DHT22;1015;49.756;6.994;2022-10-24T15:15:48;15.30;99.90
2022;DHT22;1015;49.756;6.994;2022-10-24T15:18:19;15.10;99.90
2022;DHT22;1015;49.756;6.994;2022-10-24T15:20:49;15.00;99.90
2022;DHT22;1015;49.756;6.994;2022-10-24T15:23:20;14.90;99.90
2022;DHT22;1015;49.756;6.994;2022-10-24T15:25:58;15.00;99.90
2022;DHT22;1015;49.756;6.994;2022-10-24T15:28:42;15.10;99.90
2022;DHT22;1015;49.756;6.994;2022-10-24T15:31:10;15.00;99.90
2022;DHT22;1015;49.756;6.994;2022-10-24T15:33:39;15.00;99.90
2022;DHT22;1015;49.756;6.994;2022-10-24T15:36:08;14.90;99.90
2022;DHT22;1015;49.756;6.994;2022-10-24T15:38:41;14.80;99.90
2022;DHT22;1015;49.756;6.994;2022-10-24T15:41:08;14.80;99.90
2022;DHT22;1015;49.756;6.994;2022-10-24T15:43:35;14.80;99.90
2022;DHT22;1015;49.756;6.994;2022-10-24T15:46:02;14.70;99.90
2022;DHT22;1015;49.756;6.994;2022-10-24T15:48:30;14.70;99.90
2022;DHT22;1015;49.756;6.994;2022-10-24T15:50:58;14.70;99.90
2022;DHT22;1015;49.756;6.994;2022-10-24T15:53:26;14.70;99.90
2022;DHT22;1015;49.756;6.994;2022-10-24T15:55:53;14.70;99.90
2022;DHT22;1015;49.756;6.994;2022-10-24T15:58:20;14.70;99.90
2022;DHT22;1015;49.756;6.994;2022-10-24T16:00:47;14.50;99.90
2022;DHT22;1015;49.756;6.994;2022-10-24T16:03:18;14.40;99.90
2022;DHT22;1015;49.756;6.994;2022-10-24T16:05:49;14.50;99.90
2022;DHT22;1015;49.756;6.994;2022-10-24T16:08:19;14.40;99.90
2022;DHT22;1015;49.756;6.994;2022-10-24T16:10:49;14.30;99.90
2022;DHT22;1015;49.756;6.994;2022-10-24T16:13:17;14.30;99.90
2022;DHT22;1015;49.756;6.994;2022-10-24T16:15:46;14.10;99.90
2022;DHT22;1015;49.756;6.994;2022-10-24T16:18:13;14.00;99.90
2022;DHT22;1015;49.756;6.994;2022-10-24T16:20:41;13.80;99.90
2022;DHT22;1015;49.756;6.994;2022-10-24T16:23:09;13.70;99.90
2022;DHT22;1015;49.756;6.994;2022-10-24T16:25:38;13.60;99.90
2022;DHT22;1015;49.756;6.994;2022-10-24T16:28:05;13.40;99.90
2022;DHT22;1015;49.756;6.994;2022-10-24T16:30:35;13.40;99.90
2022;DHT22;1015;49.756;6.994;2022-10-24T16:33:03;13.30;99.90
2022;DHT22;1015;49.756;6.994;2022-10-24T16:35:33;13.20;99.90
2022;DHT22;1015;49.756;6.994;2022-10-24T16:38:01;13.10;99.90
2022;DHT22;1015;49.756;6.994;2022-10-24T16:40:29;13.00;99.90
2022;DHT22;1015;49.756;6.994;2022-10-24T16:42:58;12.80;99.90